Terminal Aerodrome Forecast
Issued by NWS Knoxville/Tri Cities, TN

Home | Current Version | Previous Version | Text Only | Print | Product List | Glossary On
Versions: 1 2 3 4 5 6 7 8 9 10 11 12 13 14 15 16 17 18 19 20 21 22 23 24 25 26 27 28 29 30 31 32 33 34 35 36 37 38 39 40 41 42 43 44 45 46 47 48 49 50
000
FTUS44 KMRX 192248 AAB
TAFCHA
TAF AMD
KCHA 192248Z 1923/2018 19010KT P6SM VCTS BKN040CB BKN200
      TEMPO 1923/2001 20012G20KT 3SM -TSRA BR BKN030CB
     FM200100 20009KT P6SM BKN035
     FM200600 21005KT P6SM VCTS BKN015CB OVC035
     FM201300 23014KT P6SM VCSH SCT025 OVC040=

USA.gov is the U.S. government's official web portal to all federal, state and local government web resources and services.